Euro Snow — VQGH9 — position and weather

sailwx.info

Track history (hours):
 
Tides and Currents Weather Stations Pressure Air Temp Water Temp Dewpoint Dewpoint Depression Visibility Wind Speed Wind Dir Waves Ship Positions

Euro Snow

Last reported at 2014-Sep-29 14:33 UTC. Time now 2014-Oct-01 00:10 UTC.
Position N 48°00' W 005°54'.

Length 133 m; draft 7.3 m.

Type: Cargo ship. MMSI: 235613000.

Date/timePositionNaut miles runAvg speedWind from/ knotsBaromVisibWave heightAir tempDewpointWater temp
2014-Sep-29 14:33N 48°00' W 005°54'1515.0
2014-Sep-29 13:33N 48°15' W 005°56'1515.3
2014-Sep-29 12:33N 48°31' W 005°56'15115.0
2014-Sep-29 02:31N 49°59' W 002°48'3115.8
2014-Sep-29 00:33N 50°07' W 002°02'1513.4
2014-Sep-28 23:27N 50°11' W 001°40'1112.5
2014-Sep-28 22:33N 50°14' W 001°23'3313.4
2014-Sep-28 20:07N 50°23' W 000°34'1115.8
2014-Sep-28 19:25N 50°26' W 000°17'1516.7
2014-Sep-28 18:32N 50°31' E 000°05'1717.2
2014-Sep-28 17:33N 50°36' E 000°30'1616.4
2014-Sep-28 16:33N 50°44' E 000°52'1515.1
2014-Sep-28 15:33N 50°53' E 001°12'1313.4
2014-Sep-28 14:33N 51°02' E 001°28'1313.1
2014-Sep-28 13:34N 51°11' E 001°43'1514.5
2014-Sep-28 12:33N 51°23' E 001°56'1716.7
2014-Sep-28 11:33N 51°35' E 002°14'1717.4
2014-Sep-28 10:33N 51°48' E 002°32'1717.0
2014-Sep-28 09:33N 52°01' E 002°52'1616.3
2014-Sep-28 08:34N 52°02' E 003°18'1615.8
2014-Sep-28 07:33N 52°03' E 003°44'1414.3
2014-Sep-28 06:33N 51°58' E 004°05'2 1.8
2014-Sep-28 05:33N 51°58' E 004°02'0 0.0
2014-Sep-28 04:31N 51°58' E 004°02'0 0.0
2014-Sep-28 03:31N 51°58' E 004°02'0 0.0
2014-Sep-28 02:28N 51°58' E 004°02'0 0.0
2014-Sep-28 01:31N 51°58' E 004°02'0 0.0
2014-Sep-28 00:16N 51°58' E 004°02'0 0.0
2014-Sep-27 23:31N 51°58' E 004°02'0 0.0
2014-Sep-27 22:25N 51°58' E 004°02'0 0.0
2014-Sep-27 21:31N 51°58' E 004°02'0 0.0
2014-Sep-27 20:31N 51°58' E 004°02'0 0.0
2014-Sep-27 19:31N 51°58' E 004°02'0 0.0
2014-Sep-27 18:33N 51°58' E 004°02'0 0.0
2014-Sep-27 17:33N 51°58' E 004°02'0 0.0
2014-Sep-27 16:31N 51°58' E 004°02'0 0.0
2014-Sep-27 15:33N 51°58' E 004°02'0 0.2
2014-Sep-27 14:33N 51°58' E 004°02'1 1.4
2014-Sep-27 13:33N 51°60' E 004°01'1010.5
2014-Sep-27 12:33N 52°05' E 003°47'1616.2
2014-Sep-27 11:34N 52°22' E 003°48'1717.3
2014-Sep-27 10:33N 52°39' E 003°54'1817.6
2014-Sep-27 09:31N 52°56' E 004°00'1616.3
2014-Sep-27 08:33N 53°07' E 004°20'1515.1
2014-Sep-27 07:34N 53°20' E 004°32'1515.2
2014-Sep-27 06:33N 53°35' E 004°39'1515.4
2014-Sep-27 05:33N 53°49' E 004°47'1615.8
2014-Sep-27 04:33N 54°05' E 004°55'9815.3
2014-Sep-26 22:10N 55°28' E 006°23'1114.9
2014-Sep-26 21:28N 55°36' E 006°34'1714.8
2014-Sep-26 20:18N 55°51' E 006°50'2714.8
2014-Sep-26 18:28N 56°14' E 007°17'1314.6
2014-Sep-26 17:33N 56°25' E 007°30'12213.4
2014-Sep-26 08:28N 57°46' E 010°18'1313.6
2014-Sep-26 07:32N 57°49' E 010°41'1414.6
2014-Sep-26 06:33N 57°44' E 011°06'1515.3
2014-Sep-26 05:33N 57°38' E 011°32'1110.6
2014-Sep-26 04:33N 57°41' E 011°51'0 0.2
2014-Sep-26 03:32N 57°42' E 011°51'0 0.0
2014-Sep-26 02:32N 57°42' E 011°51'0 0.0
2014-Sep-26 01:32N 57°42' E 011°51'0 0.0
2014-Sep-26 00:32N 57°42' E 011°51'0 0.0
2014-Sep-25 23:31N 57°42' E 011°51'0 0.0
2014-Sep-25 22:31N 57°42' E 011°51'0 0.0
2014-Sep-25 21:31N 57°42' E 011°51'0 0.0
2014-Sep-25 20:32N 57°42' E 011°51'0 0.0
2014-Sep-25 19:32N 57°42' E 011°51'7 7.2
2014-Sep-25 18:33N 57°37' E 011°41'1515.5
2014-Sep-25 17:33N 57°22' E 011°40'1615.8
2014-Sep-25 16:33N 57°06' E 011°41'1615.1
2014-Sep-25 15:31N 56°51' E 011°50'1313.6
2014-Sep-25 14:33N 56°38' E 011°44'8 0.6
2014-Sep-25 02:33N 56°33' E 011°34'1514.9
2014-Sep-25 01:34N 56°45' E 011°50'1615.7
2014-Sep-25 00:33N 56°60' E 011°41'1615.8
2014-Sep-24 23:34N 57°15' E 011°32'1616.2
2014-Sep-24 22:33N 57°29' E 011°19'1717.2
2014-Sep-24 21:33N 57°41' E 010°56'39716.5
2014-Sep-23 21:33N 54°60' E 000°02'1716.5
2014-Sep-23 20:31N 54°52' W 000°24'1616.4
2014-Sep-23 19:32N 54°45' W 000°49'15 6.9
2014-Sep-23 17:25N 54°36' W 001°09'0 0.0
2014-Sep-23 16:28N 54°36' W 001°09'0 0.0
2014-Sep-23 15:28N 54°36' W 001°09'0 0.0
2014-Sep-23 14:28N 54°36' W 001°09'0 0.0
2014-Sep-23 13:31N 54°36' W 001°09'0 0.0
2014-Sep-23 12:31N 54°36' W 001°09'0 0.0
2014-Sep-23 11:31N 54°36' W 001°09'0 0.0
2014-Sep-23 10:31N 54°36' W 001°09'0 0.0
2014-Sep-23 08:34N 54°36' W 001°09'7 7.4
2014-Sep-23 07:34N 54°38' W 000°57'1616.3
2014-Sep-23 06:34N 54°32' W 000°31'1615.7
2014-Sep-23 05:34N 54°20' W 000°13'1514.9
2014-Sep-23 04:34N 54°09' E 000°04'1414.3
2014-Sep-23 03:34N 53°59' E 000°21'1414.2
2014-Sep-23 02:33N 53°48' E 000°37'1414.1
2014-Sep-23 01:32N 53°37' E 000°53'1716.2
2014-Sep-23 00:27N 53°22' E 001°08'1617.4
2014-Sep-22 23:33N 53°09' E 001°22'1717.0
2014-Sep-22 22:34N 52°55' E 001°38'1615.7
2014-Sep-22 21:34N 52°43' E 001°55'1414.1
2014-Sep-22 20:34N 52°29' E 001°52'1414.0
2014-Sep-22 19:34N 52°16' E 001°45'1413.6
2014-Sep-22 18:33N 52°03' E 001°39'1312.8
2014-Sep-22 17:34N 51°56' E 001°22'3 3.1
2014-Sep-22 16:33N 51°58' E 001°18'0 0.0
2014-Sep-22 15:31N 51°58' E 001°18'0 0.0
2014-Sep-22 14:31N 51°58' E 001°18'0 0.0
2014-Sep-22 13:31N 51°58' E 001°18'0 0.0
2014-Sep-22 12:31N 51°58' E 001°18'0 0.0
2014-Sep-22 11:31N 51°58' E 001°18'0 0.0
2014-Sep-22 10:33N 51°58' E 001°18'0 0.0
2014-Sep-22 09:33N 51°58' E 001°18'2 1.9
2014-Sep-22 08:33N 51°56' E 001°19'1211.6
2014-Sep-22 07:33N 51°52' E 001°37'1211.6
2014-Sep-22 06:33N 51°43' E 001°48'1313.5
2014-Sep-22 05:33N 51°30' E 001°46'1413.8
2014-Sep-22 04:33N 51°16' E 001°41'1211.7
2014-Sep-22 03:33N 51°05' E 001°37'2017.8
2014-Sep-22 02:25N 50°46' E 001°24'2312.5
2014-Sep-22 00:33N 50°31' E 000°56'1715.1
2014-Sep-21 23:27N 50°26' E 000°31'  
Track history (hours):
 
Tides and Currents Weather Stations Pressure Air Temp Water Temp Dewpoint Dewpoint Depression Visibility Wind Speed Wind Dir Waves Ship Positions

Euro Snow

Last reported at 2014-Sep-29 14:33 UTC. Time now 2014-Oct-01 00:10 UTC.
Position N 48°00' W 005°54'.

Length 133 m; draft 7.3 m.

Type: Cargo ship. MMSI: 235613000.

Date/timePositionNaut miles runAvg speedWind from/ knotsBaromVisibWave heightAir tempDewpointWater temp
2014-Sep-29 14:33N 48°00' W 005°54'1515.0
2014-Sep-29 13:33N 48°15' W 005°56'1515.3
2014-Sep-29 12:33N 48°31' W 005°56'15115.0
2014-Sep-29 02:31N 49°59' W 002°48'3115.8
2014-Sep-29 00:33N 50°07' W 002°02'1513.4
2014-Sep-28 23:27N 50°11' W 001°40'1112.5
2014-Sep-28 22:33N 50°14' W 001°23'3313.4
2014-Sep-28 20:07N 50°23' W 000°34'1115.8
2014-Sep-28 19:25N 50°26' W 000°17'1516.7
2014-Sep-28 18:32N 50°31' E 000°05'1717.2
2014-Sep-28 17:33N 50°36' E 000°30'1616.4
2014-Sep-28 16:33N 50°44' E 000°52'1515.1
2014-Sep-28 15:33N 50°53' E 001°12'1313.4
2014-Sep-28 14:33N 51°02' E 001°28'1313.1
2014-Sep-28 13:34N 51°11' E 001°43'1514.5
2014-Sep-28 12:33N 51°23' E 001°56'1716.7
2014-Sep-28 11:33N 51°35' E 002°14'1717.4
2014-Sep-28 10:33N 51°48' E 002°32'1717.0
2014-Sep-28 09:33N 52°01' E 002°52'1616.3
2014-Sep-28 08:34N 52°02' E 003°18'1615.8
2014-Sep-28 07:33N 52°03' E 003°44'1414.3
2014-Sep-28 06:33N 51°58' E 004°05'2 1.8
2014-Sep-28 05:33N 51°58' E 004°02'0 0.0
2014-Sep-28 04:31N 51°58' E 004°02'0 0.0
2014-Sep-28 03:31N 51°58' E 004°02'0 0.0
2014-Sep-28 02:28N 51°58' E 004°02'0 0.0
2014-Sep-28 01:31N 51°58' E 004°02'0 0.0
2014-Sep-28 00:16N 51°58' E 004°02'0 0.0
2014-Sep-27 23:31N 51°58' E 004°02'0 0.0
2014-Sep-27 22:25N 51°58' E 004°02'0 0.0
2014-Sep-27 21:31N 51°58' E 004°02'0 0.0
2014-Sep-27 20:31N 51°58' E 004°02'0 0.0
2014-Sep-27 19:31N 51°58' E 004°02'0 0.0
2014-Sep-27 18:33N 51°58' E 004°02'0 0.0
2014-Sep-27 17:33N 51°58' E 004°02'0 0.0
2014-Sep-27 16:31N 51°58' E 004°02'0 0.0
2014-Sep-27 15:33N 51°58' E 004°02'0 0.2
2014-Sep-27 14:33N 51°58' E 004°02'1 1.4
2014-Sep-27 13:33N 51°60' E 004°01'1010.5
2014-Sep-27 12:33N 52°05' E 003°47'1616.2
2014-Sep-27 11:34N 52°22' E 003°48'1717.3
2014-Sep-27 10:33N 52°39' E 003°54'1817.6
2014-Sep-27 09:31N 52°56' E 004°00'1616.3
2014-Sep-27 08:33N 53°07' E 004°20'1515.1
2014-Sep-27 07:34N 53°20' E 004°32'1515.2
2014-Sep-27 06:33N 53°35' E 004°39'1515.4
2014-Sep-27 05:33N 53°49' E 004°47'1615.8
2014-Sep-27 04:33N 54°05' E 004°55'9815.3
2014-Sep-26 22:10N 55°28' E 006°23'1114.9
2014-Sep-26 21:28N 55°36' E 006°34'1714.8
2014-Sep-26 20:18N 55°51' E 006°50'2714.8
2014-Sep-26 18:28N 56°14' E 007°17'1314.6
2014-Sep-26 17:33N 56°25' E 007°30'12213.4
2014-Sep-26 08:28N 57°46' E 010°18'1313.6
2014-Sep-26 07:32N 57°49' E 010°41'1414.6
2014-Sep-26 06:33N 57°44' E 011°06'1515.3
2014-Sep-26 05:33N 57°38' E 011°32'1110.6
2014-Sep-26 04:33N 57°41' E 011°51'0 0.2
2014-Sep-26 03:32N 57°42' E 011°51'0 0.0
2014-Sep-26 02:32N 57°42' E 011°51'0 0.0
2014-Sep-26 01:32N 57°42' E 011°51'0 0.0
2014-Sep-26 00:32N 57°42' E 011°51'0 0.0
2014-Sep-25 23:31N 57°42' E 011°51'0 0.0
2014-Sep-25 22:31N 57°42' E 011°51'0 0.0
2014-Sep-25 21:31N 57°42' E 011°51'0 0.0
2014-Sep-25 20:32N 57°42' E 011°51'0 0.0
2014-Sep-25 19:32N 57°42' E 011°51'7 7.2
2014-Sep-25 18:33N 57°37' E 011°41'1515.5
2014-Sep-25 17:33N 57°22' E 011°40'1615.8
2014-Sep-25 16:33N 57°06' E 011°41'1615.1
2014-Sep-25 15:31N 56°51' E 011°50'1313.6
2014-Sep-25 14:33N 56°38' E 011°44'8 0.6
2014-Sep-25 02:33N 56°33' E 011°34'1514.9
2014-Sep-25 01:34N 56°45' E 011°50'1615.7
2014-Sep-25 00:33N 56°60' E 011°41'1615.8
2014-Sep-24 23:34N 57°15' E 011°32'1616.2
2014-Sep-24 22:33N 57°29' E 011°19'1717.2
2014-Sep-24 21:33N 57°41' E 010°56'39716.5
2014-Sep-23 21:33N 54°60' E 000°02'1716.5
2014-Sep-23 20:31N 54°52' W 000°24'1616.4
2014-Sep-23 19:32N 54°45' W 000°49'15 6.9
2014-Sep-23 17:25N 54°36' W 001°09'0 0.0
2014-Sep-23 16:28N 54°36' W 001°09'0 0.0
2014-Sep-23 15:28N 54°36' W 001°09'0 0.0
2014-Sep-23 14:28N 54°36' W 001°09'0 0.0
2014-Sep-23 13:31N 54°36' W 001°09'0 0.0
2014-Sep-23 12:31N 54°36' W 001°09'0 0.0
2014-Sep-23 11:31N 54°36' W 001°09'0 0.0
2014-Sep-23 10:31N 54°36' W 001°09'0 0.0
2014-Sep-23 08:34N 54°36' W 001°09'7 7.4
2014-Sep-23 07:34N 54°38' W 000°57'1616.3
2014-Sep-23 06:34N 54°32' W 000°31'1615.7
2014-Sep-23 05:34N 54°20' W 000°13'1514.9
2014-Sep-23 04:34N 54°09' E 000°04'1414.3
2014-Sep-23 03:34N 53°59' E 000°21'1414.2
2014-Sep-23 02:33N 53°48' E 000°37'1414.1
2014-Sep-23 01:32N 53°37' E 000°53'1716.2
2014-Sep-23 00:27N 53°22' E 001°08'1617.4
2014-Sep-22 23:33N 53°09' E 001°22'1717.0
2014-Sep-22 22:34N 52°55' E 001°38'1615.7
2014-Sep-22 21:34N 52°43' E 001°55'1414.1
2014-Sep-22 20:34N 52°29' E 001°52'1414.0
2014-Sep-22 19:34N 52°16' E 001°45'1413.6
2014-Sep-22 18:33N 52°03' E 001°39'1312.8
2014-Sep-22 17:34N 51°56' E 001°22'3 3.1
2014-Sep-22 16:33N 51°58' E 001°18'0 0.0
2014-Sep-22 15:31N 51°58' E 001°18'0 0.0
2014-Sep-22 14:31N 51°58' E 001°18'0 0.0
2014-Sep-22 13:31N 51°58' E 001°18'0 0.0
2014-Sep-22 12:31N 51°58' E 001°18'0 0.0
2014-Sep-22 11:31N 51°58' E 001°18'0 0.0
2014-Sep-22 10:33N 51°58' E 001°18'0 0.0
2014-Sep-22 09:33N 51°58' E 001°18'2 1.9
2014-Sep-22 08:33N 51°56' E 001°19'1211.6
2014-Sep-22 07:33N 51°52' E 001°37'1211.6
2014-Sep-22 06:33N 51°43' E 001°48'1313.5
2014-Sep-22 05:33N 51°30' E 001°46'1413.8
2014-Sep-22 04:33N 51°16' E 001°41'1211.7
2014-Sep-22 03:33N 51°05' E 001°37'2017.8
2014-Sep-22 02:25N 50°46' E 001°24'2312.5
2014-Sep-22 00:33N 50°31' E 000°56'1715.1
2014-Sep-21 23:27N 50°26' E 000°31'  

Dump ship's entire track history